createdAt,value
2018-12-27T00:02:54.839Z,82279.27
2018-12-27T00:07:54.828Z,82280.66
2018-12-27T00:12:59.205Z,82278.91
2018-12-27T00:18:03.914Z,82292.78
2018-12-27T00:23:08.299Z,82286.19
2018-12-27T00:28:12.401Z,82288.52
2018-12-27T00:33:16.875Z,82291.27
2018-12-27T00:38:21.453Z,82289.61
2018-12-27T00:43:25.706Z,82290.17
2018-12-27T00:48:29.920Z,82293.41
2018-12-27T00:53:34.372Z,82287.20
2018-12-27T00:58:39.219Z,82284.60
2018-12-27T01:03:43.490Z,82284.44
2018-12-27T01:08:47.948Z,82281.56
2018-12-27T01:13:52.150Z,82286.63
2018-12-27T01:18:56.718Z,82282.98
2018-12-27T01:24:02.283Z,82273.22
2018-12-27T01:29:06.531Z,82265.06
2018-12-27T01:34:11.133Z,82257.81
2018-12-27T01:39:15.759Z,82265.16
2018-12-27T01:44:20.700Z,82276.53
2018-12-27T01:49:25.313Z,82283.78
2018-12-27T01:54:29.923Z,82294.25
2018-12-27T01:59:34.490Z,82325.28
2018-12-27T02:04:39.060Z,82320.25
2018-12-27T02:09:43.921Z,82315.91
2018-12-27T02:14:48.158Z,82316.61
2018-12-27T02:19:52.747Z,82318.30
2018-12-27T02:24:57.401Z,82315.68
2018-12-27T02:30:01.611Z,82316.91
2018-12-27T02:35:06.170Z,82302.07
2018-12-27T02:40:11.089Z,82288.48
2018-12-27T02:45:15.700Z,82276.70
2018-12-27T02:50:20.313Z,82268.67
2018-12-27T02:55:25.228Z,82262.31
2018-12-27T03:00:30.152Z,82254.77
2018-12-27T03:05:34.773Z,82248.87
2018-12-27T03:10:39.651Z,82247.78
2018-12-27T03:15:44.265Z,82243.44
2018-12-27T03:20:48.788Z,82231.78
2018-12-27T03:25:53.358Z,82229.20
2018-12-27T03:30:58.348Z,82218.67
2018-12-27T03:36:02.936Z,82220.19
2018-12-27T03:41:07.516Z,82222.25
2018-12-27T03:46:12.142Z,82225.89
2018-12-27T03:51:16.653Z,82214.67
2018-12-27T03:56:21.240Z,82200.98
2018-12-27T04:01:25.496Z,82192.91
2018-12-27T04:06:29.967Z,82182.80
2018-12-27T04:11:34.544Z,82172.09
2018-12-27T04:16:38.649Z,82161.26
2018-12-27T04:21:43.028Z,82149.45
2018-12-27T04:26:47.408Z,82134.36
2018-12-27T04:31:53.050Z,82129.69
2018-12-27T04:37:00.078Z,82127.84
2018-12-27T04:42:04.913Z,82122.15
2018-12-27T04:47:09.318Z,82115.56
2018-12-27T04:52:14.074Z,82110.20
2018-12-27T04:57:18.813Z,82104.64
2018-12-27T05:02:23.554Z,82098.55
2018-12-27T05:07:28.050Z,82091.80
2018-12-27T05:12:32.734Z,82086.91
2018-12-27T05:17:36.844Z,82079.60
2018-12-27T05:22:41.510Z,82070.41
2018-12-27T05:27:46.153Z,82066.66
2018-12-27T05:32:50.540Z,82062.32
2018-12-27T05:37:54.984Z,82083.11
2018-12-27T05:42:59.679Z,82097.06
2018-12-27T05:48:05.998Z,82117.38
2018-12-27T05:53:10.409Z,82121.39
2018-12-27T05:58:14.779Z,82111.85
2018-12-27T06:03:18.843Z,82096.77
2018-12-27T06:08:23.190Z,82087.47
2018-12-27T06:13:27.290Z,82085.29
2018-12-27T06:18:31.583Z,82081.25
2018-12-27T06:23:36.210Z,82076.84
2018-12-27T06:28:40.610Z,82080.88
2018-12-27T06:33:44.993Z,82080.68
2018-12-27T06:38:49.078Z,82062.76
2018-12-27T06:43:53.764Z,82049.75
2018-12-27T06:48:57.886Z,82049.75
2018-12-27T06:54:02.523Z,82042.84
2018-12-27T06:59:06.923Z,82040.72
2018-12-27T07:04:11.661Z,82026.67
2018-12-27T07:09:18.688Z,82031.41
2018-12-27T07:14:23.104Z,82031.89
2018-12-27T07:19:27.451Z,82030.28
2018-12-27T07:24:31.504Z,82026.70
2018-12-27T07:29:35.559Z,82035.06
2018-12-27T07:34:39.911Z,82026.56
2018-12-27T07:39:44.280Z,82029.52
2018-12-27T07:44:48.604Z,82035.30
2018-12-27T07:49:52.963Z,82046.48
2018-12-27T07:54:57.019Z,82057.27
2018-12-27T08:00:01.078Z,82072.52
2018-12-27T08:05:05.293Z,82086.11
2018-12-27T08:10:09.932Z,82095.48
2018-12-27T08:15:14.314Z,82108.25
2018-12-27T08:20:18.410Z,82120.49
2018-12-27T08:25:22.458Z,82131.88
2018-12-27T08:30:27.075Z,82145.84
2018-12-27T08:35:31.176Z,82157.05
2018-12-27T08:40:35.515Z,82163.14
2018-12-27T08:45:39.890Z,82188.13
2018-12-27T08:50:44.263Z,82215.69
2018-12-27T08:55:48.619Z,82238.67
2018-12-27T09:00:52.719Z,82255.75
2018-12-27T09:05:57.071Z,82277.16
2018-12-27T09:11:01.418Z,82298.05
2018-12-27T09:16:05.518Z,82316.48
2018-12-27T09:21:10.350Z,82332.54
2018-12-27T09:26:15.088Z,82353.63
2018-12-27T09:31:19.706Z,82372.48
2018-12-27T09:36:23.798Z,82388.69
2018-12-27T09:41:28.102Z,82395.75
2018-12-27T09:46:32.150Z,82405.24
2018-12-27T09:51:36.194Z,82412.53
2018-12-27T09:56:40.247Z,82419.42
2018-12-27T10:01:44.571Z,82439.91
2018-12-27T10:06:49.159Z,82451.35
2018-12-27T10:11:53.532Z,82455.79
2018-12-27T10:16:57.952Z,82467.41
2018-12-27T10:22:02.329Z,82485.12
2018-12-27T10:27:06.379Z,82499.39
2018-12-27T10:32:10.427Z,82509.20
2018-12-27T10:37:14.470Z,82520.22
2018-12-27T10:42:18.811Z,82533.09
2018-12-27T10:47:22.894Z,82540.29
2018-12-27T10:52:27.255Z,82549.32
2018-12-27T10:57:33.281Z,82571.05
2018-12-27T11:02:37.422Z,82581.34
2018-12-27T11:07:41.765Z,82589.04
2018-12-27T11:12:46.481Z,82610.31
2018-12-27T11:17:50.861Z,82627.74
2018-12-27T11:22:55.503Z,82641.89
2018-12-27T11:27:59.870Z,82650.78
2018-12-27T11:33:04.240Z,82669.81
2018-12-27T11:38:08.631Z,82675.66
2018-12-27T11:43:13.040Z,82681.90
2018-12-27T11:48:17.678Z,82695.78
2018-12-27T11:53:22.035Z,82704.09
2018-12-27T11:58:26.377Z,82705.34
2018-12-27T12:03:30.530Z,82705.41
2018-12-27T12:08:35.104Z,82710.83
2018-12-27T12:13:40.335Z,82720.17
2018-12-27T12:18:44.723Z,82718.05
2018-12-27T12:23:49.051Z,82724.52
2018-12-27T12:28:53.431Z,82733.58
2018-12-27T12:33:57.836Z,82736.55
2018-12-27T12:39:01.931Z,82748.53
2018-12-27T12:44:05.984Z,82760.17
2018-12-27T12:49:10.036Z,82772.06
2018-12-27T12:54:14.370Z,82784.00
2018-12-27T12:59:18.713Z,82791.14
2018-12-27T13:04:23.112Z,82803.74
2018-12-27T13:09:27.869Z,82800.50
2018-12-27T13:14:32.244Z,82811.91
2018-12-27T13:19:36.871Z,82814.03
2018-12-27T13:24:41.631Z,82813.83
2018-12-27T13:29:46.024Z,82815.77
2018-12-27T13:34:50.106Z,82811.48
2018-12-27T13:39:54.150Z,82805.10
2018-12-27T13:45:00.002Z,82804.67
2018-12-27T13:50:05.819Z,82800.87
2018-12-27T13:55:10.163Z,82796.31
2018-12-27T14:00:14.266Z,82791.11
2018-12-27T14:05:18.612Z,82784.98
2018-12-27T14:10:22.999Z,82791.27
2018-12-27T14:15:27.378Z,82779.77
2018-12-27T14:20:31.699Z,82775.98
2018-12-27T14:25:35.749Z,82770.50
2018-12-27T14:30:39.785Z,82767.51
2018-12-27T14:35:44.434Z,82759.94
2018-12-27T14:40:48.518Z,82753.22
2018-12-27T14:45:52.853Z,82747.73
2018-12-27T14:50:58.543Z,82739.47
2018-12-27T14:56:02.851Z,82735.25
2018-12-27T15:01:06.969Z,82725.15
2018-12-27T15:06:11.305Z,82725.48
2018-12-27T15:11:15.392Z,82732.95
2018-12-27T15:16:19.455Z,82715.02
2018-12-27T15:21:23.498Z,82699.81
2018-12-27T15:26:28.194Z,82685.73
2018-12-27T15:31:32.570Z,82683.05
2018-12-27T15:36:36.654Z,82681.03
2018-12-27T15:41:40.758Z,82680.94
2018-12-27T15:46:44.803Z,82665.70
2018-12-27T15:51:49.160Z,82653.67
2018-12-27T15:56:53.549Z,82643.81
2018-12-27T16:01:57.952Z,82631.55
2018-12-27T16:07:02.353Z,82631.55
2018-12-27T16:12:06.755Z,82628.57
2018-12-27T16:17:11.457Z,82618.15
2018-12-27T16:22:15.562Z,82614.23
2018-12-27T16:27:19.666Z,82607.23
2018-12-27T16:32:24.033Z,82596.28
2018-12-27T16:37:28.737Z,82591.92
2018-12-27T16:42:32.865Z,82572.88
2018-12-27T16:47:36.938Z,82566.20
2018-12-27T16:52:41.034Z,82546.13
2018-12-27T16:57:45.383Z,82537.54
2018-12-27T17:02:49.491Z,82529.13
2018-12-27T17:07:53.827Z,82518.70
2018-12-27T17:12:58.227Z,82493.34
2018-12-27T17:18:02.280Z,82487.44
2018-12-27T17:23:06.333Z,82477.09
2018-12-27T17:28:10.398Z,82474.41
2018-12-27T17:33:14.762Z,82457.77
2018-12-27T17:38:18.866Z,82453.32
2018-12-27T17:43:23.162Z,82448.70
2018-12-27T17:48:27.259Z,82446.94
2018-12-27T17:53:31.900Z,82437.46
2018-12-27T17:58:35.998Z,82438.05
2018-12-27T18:03:40.077Z,82434.98
2018-12-27T18:08:44.706Z,82428.16
2018-12-27T18:13:49.408Z,82431.63
2018-12-27T18:18:53.479Z,82440.95
2018-12-27T18:23:57.824Z,82443.80
2018-12-27T18:29:02.178Z,82446.02
2018-12-27T18:34:06.567Z,82443.47
2018-12-27T18:39:10.670Z,82437.69
2018-12-27T18:44:15.013Z,82433.88
2018-12-27T18:49:20.729Z,82432.83
2018-12-27T18:54:25.362Z,82425.76
2018-12-27T18:59:29.766Z,82423.80
2018-12-27T19:04:34.352Z,82417.54
2018-12-27T19:09:38.464Z,82415.02
2018-12-27T19:14:42.995Z,82417.54
2018-12-27T19:19:47.122Z,82420.92
2018-12-27T19:24:51.450Z,82405.01
2018-12-27T19:29:56.139Z,82412.27
2018-12-27T19:35:00.528Z,82405.21
2018-12-27T19:40:06.438Z,82420.23
2018-12-27T19:45:11.188Z,82432.03
2018-12-27T19:50:15.964Z,82442.70
2018-12-27T19:55:20.367Z,82436.80
2018-12-27T20:00:24.772Z,82433.02
2018-12-27T20:05:28.836Z,82434.25
2018-12-27T20:10:33.206Z,82446.18
2018-12-27T20:15:37.950Z,82449.06
2018-12-27T20:20:42.754Z,82451.41
2018-12-27T20:25:46.840Z,82454.05
2018-12-27T20:30:51.330Z,82456.87
2018-12-27T20:35:55.712Z,82463.53
2018-12-27T20:40:59.907Z,82460.91
2018-12-27T20:46:03.982Z,82454.95
2018-12-27T20:51:08.804Z,82465.02
2018-12-27T20:56:12.873Z,82470.53
2018-12-27T21:01:17.476Z,82471.45
2018-12-27T21:06:21.889Z,82477.35
2018-12-27T21:11:26.002Z,82473.97
2018-12-27T21:16:30.371Z,82477.02
2018-12-27T21:21:34.569Z,82467.05
2018-12-27T21:26:39.194Z,82454.70
2018-12-27T21:31:43.365Z,82462.77
2018-12-27T21:36:47.706Z,82457.93
2018-12-27T21:41:52.144Z,82462.53
2018-12-27T21:46:56.509Z,82453.98
2018-12-27T21:52:01.253Z,82470.46
2018-12-27T21:57:05.633Z,82481.38
2018-12-27T22:02:09.748Z,82481.17
2018-12-27T22:07:14.097Z,82483.20
2018-12-27T22:12:18.730Z,82484.36
2018-12-27T22:17:23.090Z,82491.98
2018-12-27T22:22:27.211Z,82486.58
2018-12-27T22:27:31.294Z,82485.98
2018-12-27T22:32:35.624Z,82482.20
2018-12-27T22:37:40.279Z,82480.25
2018-12-27T22:42:44.375Z,82480.25
2018-12-27T22:47:48.696Z,82480.45
2018-12-27T22:52:52.750Z,82480.71
2018-12-27T22:57:57.483Z,82478.48
2018-12-27T23:03:01.859Z,82466.55
2018-12-27T23:08:06.241Z,82459.48
2018-12-27T23:13:10.756Z,82456.37
2018-12-27T23:18:15.112Z,82449.63
2018-12-27T23:23:19.501Z,82447.84
2018-12-27T23:28:24.173Z,82449.00
2018-12-27T23:33:28.560Z,82446.52
2018-12-27T23:38:32.978Z,82441.58
2018-12-27T23:43:37.335Z,82442.38
2018-12-27T23:48:41.431Z,82434.25
2018-12-27T23:53:45.763Z,82432.19
2018-12-27T23:58:50.169Z,82429.51
